Alden, NY

5:42 PM EST on December 26, 2014 (GMT -0500)
West Alden | Change Station
CLOSE
Current Station
Personal Weather Station
Location: Alden, NY
Elevation: 840 ft
Nearby Weather Stations

Elev 840 ft 42.89 °N, 78.53 °W | Updated 4 minutes ago

Clear
Clear
39.1 °F
Feels Like 39 °F
N
0.0
Wind Variable Wind from South
Gusts 0.0 mph

Today
High -- | Low -- °F
--% Chance of Precip.
Yesterday
High -- | Low -- °F
Precip. -- in
7:43 AM 4:45 PM
Waxing Crescent, 30% visible
Pressure 30.13 in
Visibility 10.0 miles
Clouds Few 3500 ft
Few 18000 ft
Few 25000 ft
Few 30000 ft
Windchill 39 °F
Dew Point 14 °F
Humidity 36%
Rainfall 0.00 in
Snow Depth Not available.
UV 0 out of 12
Pollen .10 out of 12
Air Quality Not available.
Flu Activity Not available.
METAR KBUF 262154Z 23008KT 10SM FEW035 FEW180 FEW250 FEW300 07/M01 A3011 RMK AO2 SLP203 T00671011

More Conditions Fewer Conditions

Pressure 30.13 in
Visibility 10.0 miles
Clouds Few 3500 ft
Few 18000 ft
Few 25000 ft
Few 30000 ft
Windchill 39 °F
Dew Point 14 °F
Humidity 36%
Rainfall 0.00 in
Snow Depth Not available.
UV 0 out of 12
Pollen .10 out of 12
Air Quality Not available.
Flu Activity Not available.
METAR KBUF 262154Z 23008KT 10SM FEW035 FEW180 FEW250 FEW300 07/M01 A3011 RMK AO2 SLP203 T00671011

More Conditions Fewer Conditions

10-Day Weather Forecast

Almanac

Astronomy

Dec. 26, 2014 Rise Set
Actual Time
Civil Twilight
Nautical Twilight
Astronomical Twilight
Moon
Length of Visible Light
Length of Day
Tomorrow will be .
, % of the Moon is Illuminated

Today's Extremes

State Highs State Lows

Community

WunderPhotos

Upload Photos

1,780,746 photos uploaded!

WunderBlogs® & News

Nearby

Air Quality

  Air Quality AQ Index Pollutant
Not available.

Snow Depth

Station Depth Elevation

Earthquake Activity

City Distance Mag. Time & Date
Minimum magnitude displayed is 2.5.

Coastal Water Temperatures

Place Temperature

Nearby Weather Stations